createdAt,value
2017-08-22T00:02:46.000Z,1014.949
2017-08-22T00:12:46.000Z,1015.085
2017-08-22T00:22:47.000Z,1015.151
2017-08-22T00:32:46.000Z,1015.08
2017-08-22T00:42:46.000Z,1015.096
2017-08-22T00:52:46.000Z,1015.186
2017-08-22T01:02:46.000Z,1015.28
2017-08-22T01:12:46.000Z,1015.244
2017-08-22T01:22:46.000Z,1015.264
2017-08-22T01:32:46.000Z,1015.201
2017-08-22T01:42:46.000Z,1015.063
2017-08-22T01:52:46.000Z,1015.144
2017-08-22T02:02:46.000Z,1015.049
2017-08-22T02:12:46.000Z,1014.933
2017-08-22T02:22:46.000Z,1014.921
2017-08-22T02:32:46.000Z,1014.956
2017-08-22T02:42:46.000Z,1014.923
2017-08-22T02:52:46.000Z,1014.979
2017-08-22T03:02:46.000Z,1015.016
2017-08-22T03:12:46.000Z,1014.987
2017-08-22T03:22:46.000Z,1015.019
2017-08-22T03:32:46.000Z,1015.014
2017-08-22T03:42:46.000Z,1014.946
2017-08-22T03:52:46.000Z,1014.957
2017-08-22T04:02:46.000Z,1014.941
2017-08-22T04:12:46.000Z,1014.939
2017-08-22T04:22:46.000Z,1014.96
2017-08-22T04:32:46.000Z,1014.896
2017-08-22T04:42:47.000Z,1014.931
2017-08-22T04:52:47.000Z,1014.99
2017-08-22T05:02:47.000Z,1014.999
2017-08-22T05:12:47.000Z,1015.03
2017-08-22T05:22:47.000Z,1014.91
2017-08-22T05:32:47.000Z,1014.962
2017-08-22T05:42:47.000Z,1014.966
2017-08-22T05:52:47.000Z,1014.921
2017-08-22T06:02:47.000Z,1015.073
2017-08-22T06:12:48.000Z,1015.07
2017-08-22T06:22:47.000Z,1014.998
2017-08-22T06:32:56.000Z,1014.956
2017-08-22T06:42:56.000Z,1014.992
2017-08-22T06:52:56.000Z,1015.07
2017-08-22T07:02:56.000Z,1015.126
2017-08-22T07:12:56.000Z,1015.16
2017-08-22T07:22:56.000Z,1015.186
2017-08-22T07:32:56.000Z,1015.173
2017-08-22T07:42:56.000Z,1015.156
2017-08-22T07:52:56.000Z,1015.12
2017-08-22T08:02:56.000Z,1015.179
2017-08-22T08:12:56.000Z,1015.173
2017-08-22T08:22:56.000Z,1015.155
2017-08-22T08:32:56.000Z,1015.085
2017-08-22T08:42:56.000Z,1015.053
2017-08-22T08:52:56.000Z,1014.986
2017-08-22T09:02:57.000Z,1014.933
2017-08-22T09:12:57.000Z,1014.858
2017-08-22T09:22:57.000Z,1014.822
2017-08-22T09:32:57.000Z,1014.825
2017-08-22T09:42:57.000Z,1014.71
2017-08-22T09:52:57.000Z,1014.721
2017-08-22T10:02:57.000Z,1014.653
2017-08-22T10:12:57.000Z,1014.653
2017-08-22T10:22:57.000Z,1014.607
2017-08-22T10:32:57.000Z,1014.525
2017-08-22T10:42:57.000Z,1014.421
2017-08-22T10:52:57.000Z,1014.401
2017-08-22T11:02:57.000Z,1014.419
2017-08-22T11:12:57.000Z,1014.379
2017-08-22T11:22:57.000Z,1014.36
2017-08-22T11:32:57.000Z,1014.263
2017-08-22T11:42:57.000Z,1014.198
2017-08-22T11:52:57.000Z,1014.167
2017-08-22T12:02:57.000Z,1014.097
2017-08-22T12:12:57.000Z,1014.072
2017-08-22T12:22:57.000Z,1013.984
2017-08-22T12:32:57.000Z,1013.94
2017-08-22T12:42:57.000Z,1013.771
2017-08-22T12:52:57.000Z,1013.743
2017-08-22T13:02:57.000Z,1013.687
2017-08-22T13:12:57.000Z,1013.694
2017-08-22T13:22:57.000Z,1013.649
2017-08-22T13:32:57.000Z,1013.654
2017-08-22T13:42:57.000Z,1013.639
2017-08-22T13:52:57.000Z,1013.57
2017-08-22T14:02:57.000Z,1013.517
2017-08-22T14:12:57.000Z,1013.442
2017-08-22T14:22:57.000Z,1013.384
2017-08-22T14:32:57.000Z,1013.348
2017-08-22T14:42:57.000Z,1013.308
2017-08-22T14:52:57.000Z,1013.159
2017-08-22T15:02:57.000Z,1013.144
2017-08-22T15:12:57.000Z,1013.096
2017-08-22T15:22:57.000Z,1012.999
2017-08-22T15:32:57.000Z,1013.108
2017-08-22T15:42:57.000Z,1013.071
2017-08-22T15:52:57.000Z,1013.032
2017-08-22T16:02:57.000Z,1012.904
2017-08-22T16:12:57.000Z,1012.91
2017-08-22T16:22:58.000Z,1012.907
2017-08-22T16:32:57.000Z,1012.901
2017-08-22T16:42:58.000Z,1012.748
2017-08-22T16:52:58.000Z,1012.696
2017-08-22T17:02:58.000Z,1012.607
2017-08-22T17:12:58.000Z,1012.6
2017-08-22T17:22:58.000Z,1012.461
2017-08-22T17:32:59.000Z,1012.429
2017-08-22T17:42:58.000Z,1012.441
2017-08-22T17:52:58.000Z,1012.459
2017-08-22T18:02:59.000Z,1012.475
2017-08-22T18:12:59.000Z,1012.542
2017-08-22T18:22:58.000Z,1012.472
2017-08-22T18:32:58.000Z,1012.507
2017-08-22T18:42:58.000Z,1012.535
2017-08-22T18:53:00.000Z,1012.702
2017-08-22T19:02:58.000Z,1012.691
2017-08-22T19:12:58.000Z,1012.798
2017-08-22T19:22:58.000Z,1012.722
2017-08-22T19:32:58.000Z,1012.684
2017-08-22T19:42:58.000Z,1012.618
2017-08-22T19:52:58.000Z,1012.624
2017-08-22T20:02:58.000Z,1012.597
2017-08-22T20:12:58.000Z,1012.691
2017-08-22T20:22:59.000Z,1012.628
2017-08-22T20:32:58.000Z,1012.621
2017-08-22T20:42:58.000Z,1012.556
2017-08-22T20:52:59.000Z,1012.616
2017-08-22T21:02:58.000Z,1012.588
2017-08-22T21:12:59.000Z,1012.591
2017-08-22T21:22:59.000Z,1012.542
2017-08-22T21:32:58.000Z,1012.441
2017-08-22T21:42:58.000Z,1012.446
2017-08-22T21:52:58.000Z,1012.422
2017-08-22T22:02:58.000Z,1012.42
2017-08-22T22:12:58.000Z,1012.405
2017-08-22T22:22:58.000Z,1012.376
2017-08-22T22:32:58.000Z,1012.356
2017-08-22T22:42:58.000Z,1012.25
2017-08-22T22:52:58.000Z,1012.229
2017-08-22T23:02:59.000Z,1012.214
2017-08-22T23:12:58.000Z,1012.308
2017-08-22T23:22:58.000Z,1012.245
2017-08-22T23:32:58.000Z,1012.171
2017-08-22T23:42:58.000Z,1012.155
2017-08-22T23:52:58.000Z,1012.115
